Terminal Aerodrome Forecast
Issued by NWS

Home | Current Version | Previous Version | Text Only | Print | Product List | Glossary On
Versions: 1 2 3 4 5 6 7 8 9 10 11 12
000
FTUS46 KSTO 221720
TAFRBL
TAF
KRBL 221720Z 2218/2318 17006KT P6SM BKN150
     FM230100 16010KT P6SM VCSH BKN150
     FM230500 VRB04KT P6SM FEW150=

USA.gov is the U.S. government's official web portal to all federal, state and local government web resources and services.